Terminal Aerodrome Forecast
Issued by NWS

Home | Current Version | Previous Version | Graphics & Text | Print | Product List | Glossary On
Versions: 1 2 3 4 5 6 7 8 9 10 11 12 13 14 15 16 17 18
066
FTUS43 KBIS 241127
TAFMOT
TAF
KMOT 241127Z 2412/2512 23010G15KT P6SM SCT035
     FM241300 25017G24KT P6SM VCSH BKN040
     FM241700 27018G25KT P6SM VCSH BKN030
     FM250200 30013G18KT P6SM SCT012 OVC020=

USA.gov is the U.S. government's official web portal to all federal, state and local government web resources and services.